Time;durP1;ratioP1;P1;durP2;ratioP2;P2;SDS_P1;SDS_P2;PMS_P1;PMS_P2;Temp;Humidity;BMP_temperature;BMP_pressure;BME280_temperature;BME280_humidity;BME280_pressure;Samples;Min_cycle;Max_cycle;Signal;HPM_P1;HPM_P2
2023/10/22 00:02:13;0.00;0.00;0.62;0.00;0.00;0.62;2.77;2.30;;;23.60;27.90;;;;;;2272607;61;20382;-59
2023/10/22 00:04:59;0.00;0.00;0.62;0.00;0.00;0.62;3.00;2.20;;;23.60;27.80;;;;;;2272804;61;20366;-59
2023/10/22 00:07:44;0.00;0.00;0.62;0.00;0.00;0.62;3.50;2.60;;;23.60;27.90;;;;;;2272767;61;20366;-61
2023/10/22 00:10:29;0.00;0.00;0.62;0.00;0.00;0.62;3.10;2.23;;;23.60;27.90;;;;;;2272792;61;20362;-60
2023/10/22 00:13:13;0.00;0.00;0.62;0.00;0.00;0.62;2.77;2.30;;;23.60;27.80;;;;;;2272687;61;20432;-58
2023/10/22 00:15:58;0.00;0.00;0.62;0.00;0.00;0.62;4.40;2.23;;;23.60;27.90;;;;;;2272806;61;20822;-60
2023/10/22 00:18:43;0.00;0.00;0.62;0.00;0.00;0.62;2.63;2.07;;;23.60;27.90;;;;;;2272398;61;20432;-60
2023/10/22 00:21:28;0.00;0.00;0.62;0.00;0.00;0.62;2.80;1.90;;;23.60;27.90;;;;;;2272868;61;20763;-58
2023/10/22 00:24:13;0.00;0.00;0.62;0.00;0.00;0.62;2.60;2.20;;;23.60;27.90;;;;;;2272604;61;20378;-60
2023/10/22 00:27:00;0.00;0.00;0.62;0.00;0.00;0.62;3.33;2.70;;;23.60;27.90;;;;;;2272616;61;20425;-59
2023/10/22 00:29:44;0.00;0.00;0.62;0.00;0.00;0.62;3.07;2.33;;;23.60;27.90;;;;;;2272231;61;20353;-59
2023/10/22 00:32:29;0.00;0.00;0.62;0.00;0.00;0.62;2.33;1.73;;;23.60;27.80;;;;;;2272593;61;20386;-60
2023/10/22 00:35:13;0.00;0.00;0.62;0.00;0.00;0.62;2.90;1.70;;;23.60;27.90;;;;;;2272556;61;20402;-59
2023/10/22 00:38:00;0.00;0.00;0.62;0.00;0.00;0.62;3.17;2.00;;;23.60;27.90;;;;;;2269214;60;20450;-56
2023/10/22 00:40:44;0.00;0.00;0.62;0.00;0.00;0.62;2.97;2.30;;;23.60;27.90;;;;;;2272516;61;20359;-60
2023/10/22 00:43:29;0.00;0.00;0.62;0.00;0.00;0.62;3.00;2.23;;;23.60;27.80;;;;;;2272759;61;20457;-55
2023/10/22 00:46:20;0.00;0.00;0.62;0.00;0.00;0.62;2.90;2.10;;;23.60;27.80;;;;;;2272597;61;20469;-55
2023/10/22 00:49:05;0.00;0.00;0.62;0.00;0.00;0.62;2.20;1.70;;;23.60;27.90;;;;;;2272247;61;20370;-60
2023/10/22 00:51:50;0.00;0.00;0.62;0.00;0.00;0.62;2.97;2.37;;;23.60;27.90;;;;;;2272762;61;20373;-58
2023/10/22 00:54:36;0.00;0.00;0.62;0.00;0.00;0.62;2.60;1.90;;;23.60;27.90;;;;;;2272591;61;20524;-58
2023/10/22 00:57:22;0.00;0.00;0.62;0.00;0.00;0.62;2.70;2.00;;;23.60;28.40;;;;;;2269285;61;20820;-58
2023/10/22 01:00:08;0.00;0.00;0.62;0.00;0.00;0.62;2.87;1.97;;;23.60;27.90;;;;;;2272326;60;20361;-60
2023/10/22 01:02:54;0.00;0.00;0.62;0.00;0.00;0.62;3.00;1.83;;;23.60;27.90;;;;;;2602537;45;20431;-59
2023/10/22 01:05:39;0.00;0.00;0.62;0.00;0.00;0.62;2.83;2.10;;;23.60;27.90;;;;;;2276678;60;20411;-60
2023/10/22 01:08:24;0.00;0.00;0.62;0.00;0.00;0.62;3.40;2.20;;;23.50;27.80;;;;;;2270284;60;20411;-61
2023/10/22 01:11:11;0.00;0.00;0.62;0.00;0.00;0.62;3.30;1.90;;;23.50;27.80;;;;;;2275792;60;20383;-59
2023/10/22 01:13:56;0.00;0.00;0.62;0.00;0.00;0.62;3.00;1.73;;;23.50;27.80;;;;;;2273017;60;20400;-58
2023/10/22 01:16:41;0.00;0.00;0.62;0.00;0.00;0.62;3.03;2.33;;;23.50;27.80;;;;;;2273497;60;20364;-58
2023/10/22 01:19:26;0.00;0.00;0.62;0.00;0.00;0.62;2.70;1.90;;;23.50;27.80;;;;;;2275141;60;20450;-60
2023/10/22 01:22:10;0.00;0.00;0.62;0.00;0.00;0.62;2.63;1.90;;;23.50;27.80;;;;;;2276632;60;20368;-60
2023/10/22 01:24:56;0.00;0.00;0.62;0.00;0.00;0.62;2.17;1.50;;;23.50;27.80;;;;;;2276778;60;20399;-59
2023/10/22 01:27:40;0.00;0.00;0.62;0.00;0.00;0.62;2.57;1.70;;;23.50;27.80;;;;;;2276508;60;20365;-61
2023/10/22 01:30:25;0.00;0.00;0.62;0.00;0.00;0.62;2.40;1.80;;;23.50;27.80;;;;;;2273254;60;20419;-61
2023/10/22 01:33:09;0.00;0.00;0.62;0.00;0.00;0.62;2.40;1.70;;;23.50;27.80;;;;;;2276580;60;20909;-59
2023/10/22 01:35:54;0.00;0.00;0.62;0.00;0.00;0.62;2.40;1.53;;;23.50;27.80;;;;;;2276788;60;20407;-61
2023/10/22 01:38:39;0.00;0.00;0.62;0.00;0.00;0.62;2.57;1.63;;;23.50;27.80;;;;;;2276280;60;20408;-59
2023/10/22 01:41:26;0.00;0.00;0.62;0.00;0.00;0.62;2.70;1.90;;;23.50;27.80;;;;;;2273285;60;20353;-59
2023/10/22 01:44:10;0.00;0.00;0.62;0.00;0.00;0.62;3.30;1.77;;;23.50;27.80;;;;;;2276596;60;20523;-61
2023/10/22 01:46:54;0.00;0.00;0.62;0.00;0.00;0.62;2.50;1.73;;;23.50;27.80;;;;;;2276001;60;20358;-61
2023/10/22 01:49:39;0.00;0.00;0.62;0.00;0.00;0.62;3.00;1.80;;;23.50;27.80;;;;;;2276241;60;20369;-61
2023/10/22 01:52:24;0.00;0.00;0.62;0.00;0.00;0.62;3.63;2.03;;;23.50;27.80;;;;;;2277062;60;20426;-59
2023/10/22 01:55:08;0.00;0.00;0.62;0.00;0.00;0.62;2.10;1.43;;;23.50;27.80;;;;;;2277070;60;20498;-60
2023/10/22 01:57:55;0.00;0.00;0.62;0.00;0.00;0.62;2.00;1.40;;;23.50;27.80;;;;;;2276828;60;20384;-62
2023/10/22 02:00:40;0.00;0.00;0.62;0.00;0.00;0.62;1.70;1.23;;;23.50;27.80;;;;;;2274088;60;20915;-59
2023/10/22 02:03:24;0.00;0.00;0.62;0.00;0.00;0.62;2.63;1.37;;;23.50;27.80;;;;;;2271729;60;20409;-60
2023/10/22 02:06:13;0.00;0.00;0.62;0.00;0.00;0.62;2.23;1.47;;;23.50;27.80;;;;;;2273269;61;20419;-64
2023/10/22 02:08:57;0.00;0.00;0.62;0.00;0.00;0.62;2.30;1.60;;;23.50;27.80;;;;;;2272799;61;20373;-55
2023/10/22 02:11:43;0.00;0.00;0.62;0.00;0.00;0.62;3.27;1.90;;;23.50;27.80;;;;;;2272998;61;20914;-59
2023/10/22 02:14:29;0.00;0.00;0.62;0.00;0.00;0.62;2.83;1.63;;;23.50;27.80;;;;;;2269841;61;20390;-58
2023/10/22 02:17:13;0.00;0.00;0.62;0.00;0.00;0.62;2.03;1.33;;;23.50;27.80;;;;;;2273129;61;20847;-59
2023/10/22 02:19:58;0.00;0.00;0.62;0.00;0.00;0.62;2.70;1.70;;;23.50;27.80;;;;;;2272744;61;20860;-58
2023/10/22 02:22:42;0.00;0.00;0.62;0.00;0.00;0.62;2.37;1.70;;;23.50;27.80;;;;;;2273135;61;20954;-60
2023/10/22 02:25:28;0.00;0.00;0.62;0.00;0.00;0.62;2.17;1.60;;;23.50;27.80;;;;;;2272920;61;20390;-56
2023/10/22 02:28:13;0.00;0.00;0.62;0.00;0.00;0.62;2.30;1.53;;;23.40;27.70;;;;;;2272743;61;20366;-58
2023/10/22 02:30:59;0.00;0.00;0.62;0.00;0.00;0.62;2.17;1.37;;;23.40;27.70;;;;;;2273011;61;20358;-60
2023/10/22 02:33:44;0.00;0.00;0.62;0.00;0.00;0.62;2.33;1.40;;;23.40;27.80;;;;;;2273077;61;20520;-60
2023/10/22 02:36:28;0.00;0.00;0.62;0.00;0.00;0.62;2.63;1.87;;;23.50;27.80;;;;;;2269906;61;20810;-61
2023/10/22 02:39:13;0.00;0.00;0.62;0.00;0.00;0.62;2.80;1.67;;;23.40;27.80;;;;;;2269481;61;20780;-58
2023/10/22 02:41:58;0.00;0.00;0.62;0.00;0.00;0.62;2.47;1.53;;;23.40;27.80;;;;;;2273026;61;20978;-58
2023/10/22 02:44:42;0.00;0.00;0.62;0.00;0.00;0.62;2.03;1.33;;;23.40;27.80;;;;;;2269939;61;20921;-59
2023/10/22 02:47:28;0.00;0.00;0.62;0.00;0.00;0.62;2.00;1.50;;;23.40;27.80;;;;;;2269756;61;20365;-58
2023/10/22 02:50:13;0.00;0.00;0.62;0.00;0.00;0.62;2.23;1.60;;;23.40;27.80;;;;;;2272798;61;20382;-55
2023/10/22 02:52:57;0.00;0.00;0.62;0.00;0.00;0.62;2.90;1.77;;;23.40;27.80;;;;;;2275085;60;20388;-58
2023/10/22 02:55:45;0.00;0.00;0.62;0.00;0.00;0.62;2.20;1.47;;;23.40;27.80;;;;;;2273775;60;20385;-55
2023/10/22 02:58:31;0.00;0.00;0.62;0.00;0.00;0.62;1.77;1.13;;;23.40;27.80;;;;;;2273016;60;20889;-55
2023/10/22 03:01:17;0.00;0.00;0.62;0.00;0.00;0.62;1.80;1.40;;;23.40;27.80;;;;;;2277156;60;20679;-57
2023/10/22 03:04:03;0.00;0.00;0.62;0.00;0.00;0.62;2.30;1.33;;;23.40;27.80;;;;;;2273856;60;20389;-58
2023/10/22 03:06:48;0.00;0.00;0.62;0.00;0.00;0.62;3.40;1.70;;;23.40;27.80;;;;;;2277225;60;20418;-60
2023/10/22 03:09:33;0.00;0.00;0.62;0.00;0.00;0.62;1.83;1.20;;;23.40;27.80;;;;;;2273241;60;20376;-60
2023/10/22 03:12:17;0.00;0.00;0.62;0.00;0.00;0.62;2.63;1.50;;;23.40;27.80;;;;;;2277160;60;20470;-57
2023/10/22 03:15:03;0.00;0.00;0.62;0.00;0.00;0.62;2.10;1.20;;;23.40;27.80;;;;;;2276958;60;20416;-57
2023/10/22 03:17:48;0.00;0.00;0.62;0.00;0.00;0.62;1.80;1.20;;;23.40;27.80;;;;;;2273017;60;20450;-57
2023/10/22 03:20:35;0.00;0.00;0.62;0.00;0.00;0.62;2.00;1.27;;;23.40;27.80;;;;;;2276723;60;20361;-59
2023/10/22 03:23:20;0.00;0.00;0.62;0.00;0.00;0.62;2.10;1.53;;;23.40;27.80;;;;;;2276897;60;20397;-59
2023/10/22 03:26:05;0.00;0.00;0.62;0.00;0.00;0.62;2.63;1.63;;;23.40;27.80;;;;;;2277093;60;20349;-58
2023/10/22 03:28:51;0.00;0.00;0.62;0.00;0.00;0.62;2.20;1.50;;;23.40;27.80;;;;;;2276605;60;20437;-60
2023/10/22 03:31:36;0.00;0.00;0.62;0.00;0.00;0.62;2.23;1.40;;;23.40;27.80;;;;;;2276827;60;20773;-60
2023/10/22 03:34:20;0.00;0.00;0.62;0.00;0.00;0.62;1.80;1.20;;;23.40;27.80;;;;;;2276940;60;20466;-58
2023/10/22 03:37:08;0.00;0.00;0.62;0.00;0.00;0.62;2.23;1.30;;;23.40;27.80;;;;;;2273710;60;20361;-59
2023/10/22 03:39:53;0.00;0.00;0.62;0.00;0.00;0.62;2.00;1.20;;;23.30;27.70;;;;;;2273308;60;20370;-56
2023/10/22 03:42:38;0.00;0.00;0.62;0.00;0.00;0.62;1.80;1.13;;;23.40;27.80;;;;;;2273667;60;20971;-59
2023/10/22 03:45:23;0.00;0.00;0.62;0.00;0.00;0.62;1.80;1.10;;;23.40;27.80;;;;;;2277215;60;20510;-60
2023/10/22 03:48:07;0.00;0.00;0.62;0.00;0.00;0.62;2.10;1.20;;;23.40;27.80;;;;;;2276727;60;20362;-60
2023/10/22 03:50:52;0.00;0.00;0.62;0.00;0.00;0.62;2.00;1.40;;;23.30;27.70;;;;;;2273839;60;20365;-60
2023/10/22 03:53:38;0.00;0.00;0.62;0.00;0.00;0.62;1.80;1.10;;;23.30;27.80;;;;;;2276665;60;20423;-59
2023/10/22 03:56:23;0.00;0.00;0.62;0.00;0.00;0.62;1.93;1.23;;;23.40;27.80;;;;;;2277072;60;20361;-59
2023/10/22 03:59:08;0.00;0.00;0.62;0.00;0.00;0.62;1.70;1.20;;;23.30;27.80;;;;;;2276624;60;20356;-60
2023/10/22 04:01:55;0.00;0.00;0.62;0.00;0.00;0.62;2.00;1.40;;;23.30;28.30;;;;;;2276758;60;20495;-58
2023/10/22 04:04:40;0.00;0.00;0.62;0.00;0.00;0.62;1.83;1.20;;;23.40;27.80;;;;;;2276957;60;20381;-58
2023/10/22 04:07:25;0.00;0.00;0.62;0.00;0.00;0.62;2.57;1.50;;;23.30;27.80;;;;;;2277062;60;20864;-57
2023/10/22 04:10:11;0.00;0.00;0.62;0.00;0.00;0.62;2.00;1.27;;;23.30;27.80;;;;;;2276407;60;20370;-55
2023/10/22 04:12:55;0.00;0.00;0.62;0.00;0.00;0.62;1.87;1.10;;;23.30;27.80;;;;;;2276908;60;20416;-64
2023/10/22 04:15:40;0.00;0.00;0.62;0.00;0.00;0.62;2.20;1.20;;;23.30;27.80;;;;;;2276746;60;20436;-60
2023/10/22 04:18:24;0.00;0.00;0.62;0.00;0.00;0.62;1.87;1.10;;;23.30;27.80;;;;;;2276583;60;20495;-57
2023/10/22 04:21:13;0.00;0.00;0.62;0.00;0.00;0.62;1.80;1.20;;;23.30;27.80;;;;;;2276844;60;20422;-59
2023/10/22 04:23:57;0.00;0.00;0.62;0.00;0.00;0.62;2.10;1.30;;;23.30;27.80;;;;;;2276642;60;20831;-57
2023/10/22 04:26:43;0.00;0.00;0.62;0.00;0.00;0.62;1.80;0.97;;;23.30;27.80;;;;;;2276781;60;20886;-58
2023/10/22 04:29:28;0.00;0.00;0.62;0.00;0.00;0.62;1.63;1.00;;;23.30;27.80;;;;;;2276435;60;20377;-59
2023/10/22 04:32:16;0.00;0.00;0.62;0.00;0.00;0.62;1.73;1.00;;;23.30;27.80;;;;;;2297395;39;20381;31
2023/10/22 04:35:01;0.00;0.00;0.62;0.00;0.00;0.62;1.80;1.20;;;23.30;27.80;;;;;;2257998;61;20381;-58
2023/10/22 04:37:45;0.00;0.00;0.62;0.00;0.00;0.62;2.17;1.20;;;23.30;27.80;;;;;;2256531;61;20436;-57
2023/10/22 04:40:32;0.00;0.00;0.62;0.00;0.00;0.62;1.80;1.00;;;23.30;27.80;;;;;;2256545;61;20794;-61
2023/10/22 04:43:18;0.00;0.00;0.62;0.00;0.00;0.62;1.60;1.00;;;23.30;27.80;;;;;;2258906;61;20416;-62
2023/10/22 04:46:03;0.00;0.00;0.62;0.00;0.00;0.62;1.87;1.10;;;23.30;27.80;;;;;;2260510;61;20371;-58
2023/10/22 04:48:48;0.00;0.00;0.62;0.00;0.00;0.62;1.60;0.90;;;23.30;27.80;;;;;;2257109;61;20364;-59
2023/10/22 04:51:33;0.00;0.00;0.62;0.00;0.00;0.62;2.00;1.23;;;23.30;27.80;;;;;;2260552;61;20376;-57
2023/10/22 04:54:18;0.00;0.00;0.62;0.00;0.00;0.62;1.90;0.90;;;23.30;27.80;;;;;;2260243;61;20875;-57
2023/10/22 04:57:03;0.00;0.00;0.62;0.00;0.00;0.62;2.30;1.20;;;23.30;27.80;;;;;;2260662;61;20772;-58
2023/10/22 04:59:49;0.00;0.00;0.62;0.00;0.00;0.62;2.00;1.17;;;23.30;27.80;;;;;;2260077;61;20799;-59
2023/10/22 05:02:34;0.00;0.00;0.62;0.00;0.00;0.62;1.93;1.10;;;23.30;27.80;;;;;;2260059;61;20479;-58
2023/10/22 05:05:20;0.00;0.00;0.62;0.00;0.00;0.62;1.80;1.20;;;23.20;27.80;;;;;;2260570;61;20897;-59
2023/10/22 05:08:05;0.00;0.00;0.62;0.00;0.00;0.62;1.87;1.10;;;23.30;27.80;;;;;;2260069;61;20369;-59
2023/10/22 05:10:50;0.00;0.00;0.62;0.00;0.00;0.62;1.60;0.90;;;23.30;27.80;;;;;;2260453;61;20400;-58
2023/10/22 05:13:34;0.00;0.00;0.62;0.00;0.00;0.62;1.63;0.80;;;23.20;28.30;;;;;;2260533;61;20399;-58
2023/10/22 05:16:20;0.00;0.00;0.62;0.00;0.00;0.62;1.80;0.97;;;23.20;27.80;;;;;;2260369;61;20910;-59
2023/10/22 05:19:05;0.00;0.00;0.62;0.00;0.00;0.62;1.83;1.07;;;23.20;27.80;;;;;;2259711;61;20369;-55
2023/10/22 05:21:51;0.00;0.00;0.62;0.00;0.00;0.62;2.10;1.40;;;23.20;27.80;;;;;;2260462;61;20789;-59
2023/10/22 05:24:36;0.00;0.00;0.62;0.00;0.00;0.62;1.80;1.10;;;23.30;27.80;;;;;;2260484;61;20410;-60
2023/10/22 05:27:21;0.00;0.00;0.62;0.00;0.00;0.62;1.80;1.00;;;23.30;27.80;;;;;;2261214;61;20367;-57
2023/10/22 05:30:07;0.00;0.00;0.62;0.00;0.00;0.62;1.90;1.00;;;23.20;27.80;;;;;;2260629;61;20443;-58
2023/10/22 05:32:53;0.00;0.00;0.62;0.00;0.00;0.62;1.90;1.00;;;23.20;27.80;;;;;;2261844;61;20409;-57
2023/10/22 05:35:38;0.00;0.00;0.62;0.00;0.00;0.62;1.77;1.07;;;23.20;27.80;;;;;;2265026;61;20395;-60
2023/10/22 05:38:22;0.00;0.00;0.62;0.00;0.00;0.62;1.77;1.20;;;23.20;27.80;;;;;;2264646;61;20368;-59
2023/10/22 05:41:07;0.00;0.00;0.62;0.00;0.00;0.62;1.60;1.00;;;23.20;27.80;;;;;;2265232;61;20780;-59
2023/10/22 05:43:56;0.00;0.00;0.62;0.00;0.00;0.62;1.60;0.90;;;23.20;27.80;;;;;;2264893;61;20479;-59
2023/10/22 05:46:41;0.00;0.00;0.62;0.00;0.00;0.62;2.13;1.20;;;23.20;27.80;;;;;;2265412;61;20371;-59
2023/10/22 05:49:27;0.00;0.00;0.62;0.00;0.00;0.62;1.60;0.90;;;23.20;27.80;;;;;;2264738;61;20376;-58
2023/10/22 05:52:11;0.00;0.00;0.62;0.00;0.00;0.62;1.77;0.80;;;23.20;27.80;;;;;;2264905;61;20836;-59
2023/10/22 05:54:57;0.00;0.00;0.62;0.00;0.00;0.62;1.97;0.80;;;23.20;27.80;;;;;;2265053;61;20387;-59
2023/10/22 05:57:43;0.00;0.00;0.62;0.00;0.00;0.62;1.90;1.07;;;23.20;27.70;;;;;;2265165;61;20785;-56
2023/10/22 06:00:27;0.00;0.00;0.62;0.00;0.00;0.62;2.00;1.00;;;23.20;27.80;;;;;;2265163;61;20422;-59
2023/10/22 06:03:12;0.00;0.00;0.62;0.00;0.00;0.62;1.73;1.00;;;23.20;27.80;;;;;;2265226;61;20955;-56
2023/10/22 06:05:58;0.00;0.00;0.62;0.00;0.00;0.62;1.70;1.03;;;23.20;27.80;;;;;;2264974;61;20498;-57
2023/10/22 06:08:45;0.00;0.00;0.62;0.00;0.00;0.62;1.70;0.90;;;23.20;28.40;;;;;;2264836;61;20384;-62
2023/10/22 06:11:30;0.00;0.00;0.62;0.00;0.00;0.62;1.97;1.20;;;23.20;27.80;;;;;;2265141;61;20439;-58
2023/10/22 06:14:14;0.00;0.00;0.62;0.00;0.00;0.62;1.67;0.93;;;23.20;27.80;;;;;;2264715;61;20388;-59
2023/10/22 06:16:59;0.00;0.00;0.62;0.00;0.00;0.62;1.90;1.00;;;23.20;27.80;;;;;;2265020;61;20368;-54
2023/10/22 06:19:43;0.00;0.00;0.62;0.00;0.00;0.62;1.80;0.90;;;23.20;27.80;;;;;;2264854;61;20923;-58
2023/10/22 06:22:29;0.00;0.00;0.62;0.00;0.00;0.62;1.43;0.80;;;23.20;28.30;;;;;;2264682;61;20380;-59
2023/10/22 06:25:14;0.00;0.00;0.62;0.00;0.00;0.62;2.00;1.00;;;23.20;27.80;;;;;;2264954;61;20368;-59
2023/10/22 06:28:00;0.00;0.00;0.62;0.00;0.00;0.62;1.60;1.10;;;23.20;27.80;;;;;;2264621;61;20908;-57
2023/10/22 06:30:45;0.00;0.00;0.62;0.00;0.00;0.62;1.57;0.87;;;23.20;27.80;;;;;;2265189;61;20368;-59
2023/10/22 06:33:29;0.00;0.00;0.62;0.00;0.00;0.62;1.70;1.00;;;23.20;27.80;;;;;;2264832;61;20467;-59
2023/10/22 06:36:16;0.00;0.00;0.62;0.00;0.00;0.62;2.03;1.00;;;23.10;27.70;;;;;;2264660;61;20392;-60
2023/10/22 06:39:04;0.00;0.00;0.62;0.00;0.00;0.62;1.93;0.90;;;23.20;27.80;;;;;;2264518;61;20373;-58
2023/10/22 06:41:48;0.00;0.00;0.62;0.00;0.00;0.62;1.60;1.00;;;23.20;27.80;;;;;;2265102;61;20409;-59
2023/10/22 06:44:41;0.00;0.00;0.62;0.00;0.00;0.62;1.93;1.00;;;23.20;27.80;;;;;;2261481;61;21005;-63
2023/10/22 06:47:28;0.00;0.00;0.62;0.00;0.00;0.62;1.67;0.80;;;23.20;27.80;;;;;;2265021;61;20360;-58
2023/10/22 06:50:13;0.00;0.00;0.62;0.00;0.00;0.62;1.90;1.00;;;23.20;27.80;;;;;;2264721;61;20675;-59
2023/10/22 06:52:57;0.00;0.00;0.62;0.00;0.00;0.62;1.70;1.00;;;23.10;27.80;;;;;;2264824;61;20388;-57
2023/10/22 06:55:43;0.00;0.00;0.62;0.00;0.00;0.62;1.47;0.87;;;23.10;27.70;;;;;;2264916;61;20384;-55
2023/10/22 06:58:28;0.00;0.00;0.62;0.00;0.00;0.62;1.83;1.07;;;23.10;27.70;;;;;;2264439;61;21002;-60
2023/10/22 07:01:14;0.00;0.00;0.62;0.00;0.00;0.62;1.60;0.80;;;23.10;27.80;;;;;;2264796;61;20383;-59
2023/10/22 07:03:59;0.00;0.00;0.62;0.00;0.00;0.62;1.93;1.00;;;23.10;27.80;;;;;;2265064;61;20927;-55
2023/10/22 07:06:44;0.00;0.00;0.62;0.00;0.00;0.62;2.43;0.87;;;23.10;27.80;;;;;;2264708;61;20510;-60
2023/10/22 07:09:29;0.00;0.00;0.62;0.00;0.00;0.62;1.70;1.00;;;23.10;27.80;;;;;;2264542;61;20444;-59
2023/10/22 07:12:15;0.00;0.00;0.62;0.00;0.00;0.62;2.00;0.93;;;23.10;27.80;;;;;;2264938;61;20364;-55
2023/10/22 07:14:59;0.00;0.00;0.62;0.00;0.00;0.62;1.80;0.80;;;23.10;27.80;;;;;;2264714;61;20912;-58
2023/10/22 07:17:44;0.00;0.00;0.62;0.00;0.00;0.62;1.53;0.83;;;23.10;27.80;;;;;;2264862;61;20398;-58
2023/10/22 07:20:28;0.00;0.00;0.62;0.00;0.00;0.62;1.50;0.87;;;23.10;27.80;;;;;;2264808;61;20368;-56
2023/10/22 07:23:13;0.00;0.00;0.62;0.00;0.00;0.62;1.67;0.80;;;23.10;27.80;;;;;;2264963;61;20404;-56
2023/10/22 07:25:58;0.00;0.00;0.62;0.00;0.00;0.62;1.60;0.80;;;23.10;27.80;;;;;;2264976;61;20375;-56
2023/10/22 07:28:45;0.00;0.00;0.62;0.00;0.00;0.62;1.77;1.07;;;23.10;27.80;;;;;;2264263;61;20784;-54
2023/10/22 07:31:30;0.00;0.00;0.62;0.00;0.00;0.62;1.50;0.80;;;23.10;27.80;;;;;;2265243;61;20369;-63
2023/10/22 07:34:14;0.00;0.00;0.62;0.00;0.00;0.62;1.70;0.90;;;23.10;27.80;;;;;;2265053;61;20939;-56
2023/10/22 07:36:59;0.00;0.00;0.62;0.00;0.00;0.62;2.10;1.37;;;23.10;27.80;;;;;;2264925;61;20434;-59
2023/10/22 07:39:43;0.00;0.00;0.62;0.00;0.00;0.62;1.70;1.10;;;23.10;27.80;;;;;;2264628;61;20407;-58
2023/10/22 07:42:28;0.00;0.00;0.62;0.00;0.00;0.62;1.70;0.90;;;23.10;27.80;;;;;;2264653;61;20380;-59
2023/10/22 07:45:14;0.00;0.00;0.62;0.00;0.00;0.62;1.50;0.80;;;23.10;27.80;;;;;;2264883;61;20356;-64
2023/10/22 07:47:58;0.00;0.00;0.62;0.00;0.00;0.62;1.50;0.80;;;23.10;27.80;;;;;;2263828;61;20368;-59
2023/10/22 07:50:43;0.00;0.00;0.62;0.00;0.00;0.62;2.10;1.20;;;23.10;27.80;;;;;;2264195;61;20770;-59
2023/10/22 07:53:27;0.00;0.00;0.62;0.00;0.00;0.62;1.43;0.70;;;23.10;27.80;;;;;;2257519;61;20385;-59
2023/10/22 07:56:15;0.00;0.00;0.62;0.00;0.00;0.62;2.10;1.43;;;23.10;27.90;;;;;;2260681;61;20384;-56
2023/10/22 07:59:00;0.00;0.00;0.62;0.00;0.00;0.62;1.43;0.87;;;23.10;27.80;;;;;;2257134;61;20897;-58
2023/10/22 08:01:46;0.00;0.00;0.62;0.00;0.00;0.62;1.43;0.97;;;23.10;27.90;;;;;;2260836;61;20419;-57
2023/10/22 08:04:31;0.00;0.00;0.62;0.00;0.00;0.62;1.67;0.90;;;23.10;27.90;;;;;;2260875;61;20477;-58
2023/10/22 08:07:19;0.00;0.00;0.62;0.00;0.00;0.62;1.60;1.00;;;23.10;27.90;;;;;;2260405;61;20776;-58
2023/10/22 08:10:13;0.00;0.00;0.62;0.00;0.00;0.62;1.70;0.90;;;23.10;27.90;;;;;;1685479;73;20882;-61
2023/10/22 08:12:58;0.00;0.00;0.62;0.00;0.00;0.62;2.50;0.90;;;23.10;27.90;;;;;;2275906;60;20415;-59
2023/10/22 08:15:43;0.00;0.00;0.62;0.00;0.00;0.62;2.20;1.00;;;23.10;27.90;;;;;;2275873;60;20378;-60
2023/10/22 08:18:28;0.00;0.00;0.62;0.00;0.00;0.62;3.43;0.80;;;23.10;27.90;;;;;;2275806;60;20357;-59
2023/10/22 08:21:13;0.00;0.00;0.62;0.00;0.00;0.62;1.70;1.10;;;23.10;27.90;;;;;;2276066;60;20814;-57
2023/10/22 08:23:57;0.00;0.00;0.62;0.00;0.00;0.62;1.60;0.97;;;23.10;27.90;;;;;;2275937;60;20447;-59
2023/10/22 08:26:43;0.00;0.00;0.62;0.00;0.00;0.62;1.80;0.90;;;23.10;28.00;;;;;;2275959;60;20987;-58
2023/10/22 08:29:28;0.00;0.00;0.62;0.00;0.00;0.62;1.60;0.93;;;23.10;27.90;;;;;;2275895;60;20403;-57
2023/10/22 08:32:12;0.00;0.00;0.62;0.00;0.00;0.62;1.33;0.80;;;23.10;27.90;;;;;;2275560;60;20397;-61
2023/10/22 08:34:57;0.00;0.00;0.62;0.00;0.00;0.62;1.97;1.07;;;23.10;28.00;;;;;;2275591;60;20365;-60
2023/10/22 08:37:41;0.00;0.00;0.62;0.00;0.00;0.62;1.57;1.07;;;23.10;28.00;;;;;;2275820;60;20361;-60
2023/10/22 08:40:27;0.00;0.00;0.62;0.00;0.00;0.62;1.97;0.80;;;23.10;27.90;;;;;;2275914;60;20427;-60
2023/10/22 08:43:17;0.00;0.00;0.62;0.00;0.00;0.62;1.67;1.00;;;23.10;27.90;;;;;;2275627;60;20795;-61
2023/10/22 08:46:01;0.00;0.00;0.62;0.00;0.00;0.62;2.23;1.07;;;23.10;28.00;;;;;;2275847;60;20362;-60
2023/10/22 08:48:46;0.00;0.00;0.62;0.00;0.00;0.62;1.80;1.00;;;23.10;28.00;;;;;;2275346;60;20422;-57
2023/10/22 08:51:31;0.00;0.00;0.62;0.00;0.00;0.62;1.70;1.00;;;23.10;27.90;;;;;;2275401;60;20407;-58
2023/10/22 08:54:16;0.00;0.00;0.62;0.00;0.00;0.62;1.90;1.37;;;23.10;27.90;;;;;;2275890;60;20389;-60
2023/10/22 08:57:01;0.00;0.00;0.62;0.00;0.00;0.62;1.43;0.93;;;23.10;28.00;;;;;;2275737;60;20768;-60
2023/10/22 08:59:48;0.00;0.00;0.62;0.00;0.00;0.62;2.10;1.33;;;23.10;28.00;;;;;;2275520;60;20877;-58
2023/10/22 09:02:33;0.00;0.00;0.62;0.00;0.00;0.62;2.77;1.13;;;23.10;28.00;;;;;;2275801;60;20959;-59
2023/10/22 09:05:19;0.00;0.00;0.62;0.00;0.00;0.62;2.23;1.10;;;23.10;28.00;;;;;;2275783;60;20415;-59
2023/10/22 09:08:05;0.00;0.00;0.62;0.00;0.00;0.62;1.73;1.00;;;23.10;28.00;;;;;;2275428;60;20373;-58
2023/10/22 09:10:49;0.00;0.00;0.62;0.00;0.00;0.62;2.10;1.27;;;23.10;28.00;;;;;;2275921;60;20457;-61
2023/10/22 09:13:34;0.00;0.00;0.62;0.00;0.00;0.62;2.07;1.17;;;23.10;28.00;;;;;;2275695;60;20381;-59
2023/10/22 09:16:32;0.00;0.00;0.62;0.00;0.00;0.62;1.60;1.10;;;23.10;28.00;;;;;;2275957;60;20924;-59
2023/10/22 09:19:37;0.00;0.00;0.62;0.00;0.00;0.62;1.80;1.10;;;23.10;28.00;;;;;;2275183;60;20382;-59
2023/10/22 09:22:23;0.00;0.00;0.62;0.00;0.00;0.62;2.43;0.90;;;23.10;28.20;;;;;;2273176;60;20401;-57
2023/10/22 09:25:08;0.00;0.00;0.62;0.00;0.00;0.62;2.10;1.07;;;23.10;28.00;;;;;;2272948;60;20368;-60
2023/10/22 09:27:53;0.00;0.00;0.62;0.00;0.00;0.62;1.90;1.03;;;23.10;28.00;;;;;;2272566;60;21035;-57
2023/10/22 09:30:38;0.00;0.00;0.62;0.00;0.00;0.62;1.63;1.10;;;23.20;28.10;;;;;;2273015;60;20894;-56
2023/10/22 09:33:33;0.00;0.00;0.62;0.00;0.00;0.62;1.77;1.13;;;23.20;28.10;;;;;;2273047;60;21061;-61
2023/10/22 09:36:17;0.00;0.00;0.62;0.00;0.00;0.62;2.03;1.10;;;23.10;28.00;;;;;;2273120;60;20406;-59
2023/10/22 09:39:04;0.00;0.00;0.62;0.00;0.00;0.62;1.97;1.00;;;23.10;28.00;;;;;;2272638;60;21094;-57
2023/10/22 09:41:49;0.00;0.00;0.62;0.00;0.00;0.62;1.93;1.13;;;23.10;28.00;;;;;;2272857;60;20358;-61
2023/10/22 09:44:36;0.00;0.00;0.62;0.00;0.00;0.62;1.60;1.07;;;23.20;28.10;;;;;;2272859;60;20918;-59
2023/10/22 09:47:23;0.00;0.00;0.62;0.00;0.00;0.62;1.70;1.00;;;23.20;28.20;;;;;;2272839;60;20443;-60
2023/10/22 09:50:14;0.00;0.00;0.62;0.00;0.00;0.62;1.80;1.07;;;23.20;28.10;;;;;;2272500;60;20366;-61
2023/10/22 09:53:01;0.00;0.00;0.62;0.00;0.00;0.62;1.77;1.00;;;23.20;28.10;;;;;;2272955;60;20387;-60
2023/10/22 09:55:48;0.00;0.00;0.62;0.00;0.00;0.62;2.10;1.10;;;23.20;28.10;;;;;;2272949;60;20362;-61
2023/10/22 09:58:42;0.00;0.00;0.62;0.00;0.00;0.62;1.93;1.10;;;23.20;28.10;;;;;;2272476;60;20354;-60
2023/10/22 10:01:31;0.00;0.00;0.62;0.00;0.00;0.62;1.60;0.93;;;23.20;28.10;;;;;;2272697;60;20389;-60
2023/10/22 10:04:19;0.00;0.00;0.62;0.00;0.00;0.62;1.80;1.07;;;23.20;28.10;;;;;;2272772;61;20471;-58
2023/10/22 10:07:05;0.00;0.00;0.62;0.00;0.00;0.62;1.70;0.90;;;23.20;28.10;;;;;;2272913;60;20767;-61
2023/10/22 10:09:51;0.00;0.00;0.62;0.00;0.00;0.62;2.40;1.30;;;23.20;28.20;;;;;;2272448;60;20402;-60
2023/10/22 10:12:40;0.00;0.00;0.62;0.00;0.00;0.62;2.30;1.70;;;23.20;28.20;;;;;;2272813;61;20448;-61
2023/10/22 10:15:31;0.00;0.00;0.62;0.00;0.00;0.62;1.83;1.33;;;23.20;28.20;;;;;;2273079;60;20358;-59
2023/10/22 10:18:16;0.00;0.00;0.62;0.00;0.00;0.62;2.77;1.97;;;23.20;28.20;;;;;;2272348;60;20925;-59
2023/10/22 10:21:42;0.00;0.00;0.62;0.00;0.00;0.62;2.50;1.90;;;23.20;28.20;;;;;;2272389;61;20398;-61
2023/10/22 10:24:30;0.00;0.00;0.62;0.00;0.00;0.62;2.23;1.50;;;23.20;28.20;;;;;;2273049;60;20362;-60
2023/10/22 10:27:26;0.00;0.00;0.62;0.00;0.00;0.62;2.90;1.80;;;23.20;28.20;;;;;;2272670;60;20416;-60
2023/10/22 10:30:20;0.00;0.00;0.62;0.00;0.00;0.62;2.70;1.90;;;23.20;28.20;;;;;;2272578;60;20389;-63
2023/10/22 10:33:05;0.00;0.00;0.62;0.00;0.00;0.62;2.77;2.10;;;23.20;28.20;;;;;;2272017;60;20389;-59
2023/10/22 10:35:49;0.00;0.00;0.62;0.00;0.00;0.62;2.17;1.43;;;23.30;28.30;;;;;;2272347;60;20520;-61
2023/10/22 10:38:34;0.00;0.00;0.62;0.00;0.00;0.62;3.30;1.60;;;23.20;28.30;;;;;;2272447;60;20405;-62
2023/10/22 10:41:52;0.00;0.00;0.62;0.00;0.00;0.62;2.40;1.63;;;23.20;28.30;;;;;;2272765;60;20390;-57
2023/10/22 10:45:07;0.00;0.00;0.62;0.00;0.00;0.62;2.47;1.60;;;23.30;28.30;;;;;;2272908;60;20766;-59
2023/10/22 10:47:51;0.00;0.00;0.62;0.00;0.00;0.62;2.33;1.47;;;23.30;28.40;;;;;;2272418;61;20378;-62
2023/10/22 10:50:36;0.00;0.00;0.62;0.00;0.00;0.62;2.03;1.40;;;23.30;28.30;;;;;;2272612;60;20360;-59
2023/10/22 10:53:20;0.00;0.00;0.62;0.00;0.00;0.62;2.37;1.73;;;23.30;28.40;;;;;;2272706;60;20812;-58
2023/10/22 10:56:05;0.00;0.00;0.62;0.00;0.00;0.62;2.30;1.60;;;23.30;28.30;;;;;;2272644;60;20355;-58